Time;durP1;ratioP1;P1;durP2;ratioP2;P2;SDS_P1;SDS_P2;PMS_P1;PMS_P2;Temp;Humidity;BMP_temperature;BMP_pressure;BME280_temperature;BME280_humidity;BME280_pressure;Samples;Min_cycle;Max_cycle;Signal;HPM_P1;HPM_P2
2023/04/04 00:00:21;;;;;;;5.07;2.40;;;2.90;99.90;;;;;;4986247;28;20054;-76
2023/04/04 00:02:48;;;;;;;4.65;2.38;;;2.80;99.90;;;;;;4980756;28;20521;-76
2023/04/04 00:05:16;;;;;;;5.97;2.40;;;2.70;99.90;;;;;;4982376;28;20047;-76
2023/04/04 00:07:47;;;;;;;6.97;2.72;;;2.70;99.90;;;;;;4977128;28;20042;-76
2023/04/04 00:10:14;;;;;;;6.30;2.55;;;2.60;99.90;;;;;;4978268;28;20048;-76
2023/04/04 00:12:42;;;;;;;3.63;2.35;;;2.60;99.90;;;;;;4985296;28;20133;-76
2023/04/04 00:15:10;;;;;;;4.68;2.70;;;2.60;99.90;;;;;;4982693;28;20137;-74
2023/04/04 00:17:36;;;;;;;4.43;2.63;;;2.70;99.90;;;;;;4987167;28;20565;-76
2023/04/04 00:20:03;;;;;;;5.25;2.72;;;2.70;99.90;;;;;;4984267;28;20060;-75
2023/04/04 00:22:31;;;;;;;5.60;2.35;;;2.70;99.90;;;;;;4983415;28;20061;-77
2023/04/04 00:24:57;;;;;;;5.65;2.60;;;2.70;99.90;;;;;;4990083;28;20130;-75
2023/04/04 00:27:25;;;;;;;6.15;3.17;;;2.80;99.90;;;;;;4980229;28;20050;-76
2023/04/04 00:29:51;;;;;;;5.55;3.28;;;2.80;99.90;;;;;;4982943;28;20042;-76
2023/04/04 00:32:18;;;;;;;5.47;2.95;;;2.80;99.90;;;;;;4977125;28;20054;-75
2023/04/04 00:34:45;;;;;;;4.10;2.50;;;2.80;99.90;;;;;;4988835;28;20537;-75
2023/04/04 00:37:11;;;;;;;4.05;2.67;;;2.80;99.90;;;;;;4976086;28;20050;-76
2023/04/04 00:39:38;;;;;;;6.30;2.88;;;2.90;99.90;;;;;;4982888;28;20050;-75
2023/04/04 00:42:05;;;;;;;4.97;2.92;;;2.90;99.90;;;;;;4985916;28;20058;-75
2023/04/04 00:44:34;;;;;;;5.68;2.80;;;2.90;99.90;;;;;;4985096;28;20054;-75
2023/04/04 00:47:03;;;;;;;3.92;2.85;;;2.80;99.90;;;;;;4986214;28;20053;-75
2023/04/04 00:49:29;;;;;;;3.75;2.95;;;2.80;99.90;;;;;;4978511;28;20422;-75
2023/04/04 00:51:56;;;;;;;3.92;3.15;;;2.80;99.90;;;;;;4983325;28;20046;-75
2023/04/04 00:54:23;;;;;;;3.80;3.00;;;2.90;99.90;;;;;;4977818;28;20082;-75
2023/04/04 00:56:54;;;;;;;4.38;2.92;;;2.80;99.90;;;;;;4981347;28;20051;-76
2023/04/04 00:59:22;;;;;;;5.13;3.05;;;2.80;99.90;;;;;;4991313;28;20422;-75
2023/04/04 01:01:49;;;;;;;4.63;2.80;;;2.70;99.90;;;;;;4993273;28;20102;-75
2023/04/04 01:04:16;;;;;;;3.60;2.63;;;2.70;99.90;;;;;;4985260;28;20038;-76
2023/04/04 01:06:44;;;;;;;5.40;2.95;;;2.70;99.90;;;;;;4982198;28;20055;-75
2023/04/04 01:09:11;;;;;;;6.93;2.92;;;2.70;99.90;;;;;;4988379;28;20125;-75
2023/04/04 01:11:38;;;;;;;5.50;2.50;;;2.50;99.90;;;;;;4988434;28;20050;-76
2023/04/04 01:14:05;;;;;;;4.03;3.05;;;2.50;99.90;;;;;;4983552;28;20506;-77
2023/04/04 01:16:32;;;;;;;4.78;2.63;;;2.40;99.90;;;;;;4986857;28;20545;-76
2023/04/04 01:18:59;;;;;;;5.13;2.80;;;2.30;99.90;;;;;;4982361;28;20526;-76
2023/04/04 01:21:27;;;;;;;5.85;2.60;;;2.30;99.90;;;;;;4986053;28;20093;-76
2023/04/04 01:24:02;;;;;;;4.60;2.95;;;2.20;99.90;;;;;;4980634;28;20050;-76
2023/04/04 01:26:30;;;;;;;6.03;2.80;;;2.20;99.90;;;;;;4986953;28;20061;-76
2023/04/04 01:28:58;;;;;;;5.25;2.88;;;2.30;99.90;;;;;;4980414;28;20418;-75
2023/04/04 01:31:40;;;;;;;4.15;2.72;;;2.30;99.90;;;;;;4984732;28;20090;-76
2023/04/04 01:34:18;;;;;;;5.20;2.95;;;2.20;99.90;;;;;;4989574;28;20568;-75
2023/04/04 01:36:56;;;;;;;5.82;2.85;;;2.20;99.90;;;;;;4984005;28;20049;-75
2023/04/04 01:39:34;;;;;;;9.65;2.75;;;2.10;99.90;;;;;;4987521;28;20046;-75
2023/04/04 01:42:02;;;;;;;5.25;2.80;;;2.00;99.90;;;;;;4982920;28;20414;-75
2023/04/04 01:44:29;;;;;;;5.22;2.83;;;1.90;99.90;;;;;;4991390;28;20515;-75
2023/04/04 01:46:56;;;;;;;3.88;2.75;;;1.80;99.90;;;;;;4981447;28;20047;-75
2023/04/04 01:49:22;;;;;;;3.22;2.10;;;1.70;99.90;;;;;;4982228;28;20057;-76
2023/04/04 01:51:50;;;;;;;5.03;2.60;;;1.70;99.90;;;;;;4982644;28;20537;-75
2023/04/04 01:54:18;;;;;;;3.72;2.38;;;1.70;99.90;;;;;;4980814;28;20050;-76
2023/04/04 01:56:45;;;;;;;3.15;2.78;;;1.70;99.90;;;;;;4989505;28;20124;-75
2023/04/04 01:59:12;;;;;;;4.57;2.85;;;1.80;99.90;;;;;;4988334;28;20052;-75
2023/04/04 02:01:38;;;;;;;3.05;2.58;;;1.80;99.90;;;;;;4985678;28;20050;-75
2023/04/04 02:04:06;;;;;;;4.18;2.55;;;1.90;99.90;;;;;;4986910;28;20089;-75
2023/04/04 02:06:32;;;;;;;4.32;2.47;;;1.80;99.90;;;;;;4982104;28;20054;-75
2023/04/04 02:08:59;;;;;;;4.97;2.85;;;1.80;99.90;;;;;;4984939;28;20081;-76
2023/04/04 02:11:26;;;;;;;3.00;2.60;;;1.70;99.90;;;;;;4993976;28;20068;-75
2023/04/04 02:13:53;;;;;;;3.30;2.40;;;1.60;99.90;;;;;;4986540;28;20054;-76
2023/04/04 02:16:20;;;;;;;7.47;2.67;;;1.50;99.90;;;;;;4980034;28;20458;-76
2023/04/04 02:18:46;;;;;;;3.35;2.70;;;1.50;99.90;;;;;;4985615;28;20054;-75
2023/04/04 02:21:13;;;;;;;9.25;2.70;;;1.50;99.90;;;;;;4987991;28;20122;-75
2023/04/04 02:23:40;;;;;;;4.50;2.50;;;1.40;99.90;;;;;;4991139;28;20050;-76
2023/04/04 02:26:07;;;;;;;7.53;2.78;;;1.40;99.90;;;;;;4990998;28;20050;-75
2023/04/04 02:28:33;;;;;;;4.55;2.50;;;1.30;99.90;;;;;;4984710;28;20053;-75
2023/04/04 02:31:01;;;;;;;3.85;2.88;;;1.30;99.90;;;;;;4992213;28;20051;-76
2023/04/04 02:33:28;;;;;;;4.13;2.58;;;1.40;99.90;;;;;;4981674;28;20121;-76
2023/04/04 02:35:59;;;;;;;3.90;2.55;;;1.40;99.90;;;;;;4981707;28;20054;-75
2023/04/04 02:38:26;;;;;;;4.68;2.60;;;1.40;99.90;;;;;;4982848;28;20165;-75
2023/04/04 02:40:52;;;;;;;3.15;2.13;;;1.40;99.90;;;;;;4978806;28;20153;-75
2023/04/04 02:43:19;;;;;;;4.20;2.50;;;1.30;99.90;;;;;;4984518;28;20082;-75
2023/04/04 02:45:48;;;;;;;3.38;2.13;;;1.30;99.90;;;;;;4989158;28;20050;-76
2023/04/04 02:48:14;;;;;;;5.93;2.83;;;1.20;99.90;;;;;;4991613;28;20052;-76
2023/04/04 02:50:41;;;;;;;7.97;2.60;;;1.20;99.90;;;;;;4985834;28;20137;-76
2023/04/04 02:53:08;;;;;;;4.95;2.78;;;1.30;99.90;;;;;;4980960;28;20126;-75
2023/04/04 02:55:35;;;;;;;3.92;2.13;;;1.20;99.90;;;;;;4984808;28;20082;-75
2023/04/04 02:58:01;;;;;;;3.13;2.35;;;1.30;99.90;;;;;;4990697;28;20051;-75
2023/04/04 03:00:28;;;;;;;8.32;2.40;;;1.20;99.90;;;;;;4982672;28;20073;-75
2023/04/04 03:02:56;;;;;;;4.50;2.45;;;1.20;99.90;;;;;;4979666;28;20050;-75
2023/04/04 03:05:24;;;;;;;3.63;2.17;;;1.20;99.90;;;;;;4984313;28;20057;-75
2023/04/04 03:07:57;;;;;;;5.78;2.10;;;1.20;99.90;;;;;;4979925;28;20087;-76
2023/04/04 03:10:25;;;;;;;5.85;2.42;;;1.20;99.90;;;;;;4982516;28;20046;-76
2023/04/04 03:12:52;;;;;;;4.22;2.10;;;1.20;99.90;;;;;;4991403;28;20129;-75
2023/04/04 03:15:19;;;;;;;6.18;2.65;;;1.20;99.90;;;;;;4985807;28;20494;-76
2023/04/04 03:17:46;;;;;;;3.88;2.25;;;1.20;99.90;;;;;;4983683;28;20097;-75
2023/04/04 03:20:13;;;;;;;3.47;2.10;;;1.20;99.90;;;;;;4983148;28;20050;-75
2023/04/04 03:22:41;;;;;;;5.28;2.40;;;1.20;99.90;;;;;;4980332;28;20082;-75
2023/04/04 03:25:08;;;;;;;4.85;2.45;;;1.20;99.90;;;;;;4983266;28;20078;-75
2023/04/04 03:27:35;;;;;;;3.05;2.05;;;1.20;99.90;;;;;;4977265;28;20060;-75
2023/04/04 03:30:02;;;;;;;5.05;2.90;;;1.30;99.90;;;;;;4984434;28;20070;-75
2023/04/04 03:32:29;;;;;;;8.35;2.55;;;1.30;99.90;;;;;;4976067;28;20057;-76
2023/04/04 03:34:56;;;;;;;4.40;2.65;;;1.30;99.90;;;;;;4985938;28;20046;-75
2023/04/04 03:37:23;;;;;;;7.03;3.20;;;1.30;99.90;;;;;;4988170;28;20046;-76
2023/04/04 03:39:49;;;;;;;4.93;2.67;;;1.30;99.90;;;;;;4981664;28;20042;-75
2023/04/04 03:42:16;;;;;;;4.18;2.72;;;1.20;99.90;;;;;;4990831;28;20057;-75
2023/04/04 03:44:43;;;;;;;4.93;2.80;;;1.20;99.90;;;;;;4979230;28;20053;-76
2023/04/04 03:47:09;;;;;;;4.68;2.78;;;1.20;99.90;;;;;;4983782;28;20118;-75
2023/04/04 03:49:36;;;;;;;6.50;2.85;;;1.20;99.90;;;;;;4978493;28;20061;-75
2023/04/04 03:52:03;;;;;;;7.53;3.13;;;1.20;99.90;;;;;;4980360;28;20053;-75
2023/04/04 03:54:29;;;;;;;6.20;2.95;;;1.20;99.90;;;;;;4980381;28;20046;-76
2023/04/04 03:56:56;;;;;;;9.73;2.72;;;1.20;99.90;;;;;;4996628;28;20042;-76
2023/04/04 03:59:24;;;;;;;4.22;2.60;;;1.20;99.90;;;;;;4986090;28;20577;-75
2023/04/04 04:01:51;;;;;;;9.35;2.72;;;1.20;99.90;;;;;;4987007;28;20050;-75
2023/04/04 04:04:18;;;;;;;3.88;3.05;;;1.10;99.90;;;;;;4982251;28;20085;-76
2023/04/04 04:06:44;;;;;;;5.72;2.70;;;1.10;99.90;;;;;;4986950;28;20051;-76
2023/04/04 04:09:11;;;;;;;3.90;2.72;;;1.00;99.90;;;;;;4980769;28;20529;-75
2023/04/04 04:11:38;;;;;;;5.22;2.50;;;0.90;99.90;;;;;;4981934;28;20129;-76
2023/04/04 04:14:04;;;;;;;3.05;2.35;;;0.80;99.90;;;;;;4978321;28;20094;-76
2023/04/04 04:16:31;;;;;;;4.53;2.70;;;0.80;99.90;;;;;;4983047;28;20042;-76
2023/04/04 04:18:58;;;;;;;6.40;2.58;;;0.70;99.90;;;;;;4976939;28;20046;-75
2023/04/04 04:21:25;;;;;;;5.50;3.20;;;0.60;99.90;;;;;;4981351;28;20086;-75
2023/04/04 04:23:52;;;;;;;6.00;2.88;;;0.50;99.90;;;;;;4990530;28;20061;-76
2023/04/04 04:26:18;;;;;;;5.32;3.33;;;0.40;99.90;;;;;;4986741;28;20645;-75
2023/04/04 04:28:47;;;;;;;4.88;3.13;;;0.40;99.90;;;;;;4984840;28;20050;-76
2023/04/04 04:31:13;;;;;;;3.78;2.80;;;0.40;99.90;;;;;;4978581;28;20129;-75
2023/04/04 04:33:40;;;;;;;4.47;2.30;;;0.40;99.90;;;;;;4981691;28;20050;-75
2023/04/04 04:36:07;;;;;;;4.30;2.30;;;0.40;99.90;;;;;;4981953;28;20062;-76
2023/04/04 04:38:34;;;;;;;9.82;3.38;;;0.40;99.90;;;;;;4978213;28;20085;-75
2023/04/04 04:41:01;;;;;;;5.72;2.63;;;0.40;99.90;;;;;;4980890;28;20051;-76
2023/04/04 04:43:27;;;;;;;4.80;2.58;;;0.40;99.90;;;;;;4975272;28;20422;-75
2023/04/04 04:45:54;;;;;;;8.77;2.53;;;0.50;99.90;;;;;;4988277;28;20061;-75
2023/04/04 04:48:21;;;;;;;4.03;2.30;;;0.50;99.90;;;;;;4984626;28;20529;-76
2023/04/04 04:50:48;;;;;;;5.18;2.67;;;0.50;99.90;;;;;;4983077;28;20510;-76
2023/04/04 04:53:15;;;;;;;4.13;2.85;;;0.50;99.90;;;;;;4986742;28;20050;-75
2023/04/04 04:55:42;;;;;;;5.15;2.83;;;0.50;99.90;;;;;;4979713;28;20055;-76
2023/04/04 04:58:09;;;;;;;4.22;2.60;;;0.40;99.90;;;;;;4984987;28;20481;-75
2023/04/04 05:00:38;;;;;;;3.42;2.50;;;0.50;99.90;;;;;;4977595;28;20054;-76
2023/04/04 05:03:08;;;;;;;5.07;2.60;;;0.50;99.90;;;;;;4982780;28;20109;-76
2023/04/04 05:05:35;;;;;;;4.88;2.80;;;0.50;99.90;;;;;;4977265;28;20434;-76
2023/04/04 05:08:02;;;;;;;3.17;2.33;;;0.50;99.90;;;;;;4981226;28;20062;-76
2023/04/04 05:10:30;;;;;;;5.20;2.58;;;0.50;99.90;;;;;;4977712;28;20054;-75
2023/04/04 05:12:57;;;;;;;7.35;2.63;;;0.40;99.90;;;;;;4989184;28;20051;-76
2023/04/04 05:15:30;;;;;;;4.35;2.53;;;0.40;99.90;;;;;;4989455;28;20042;-75
2023/04/04 05:17:57;;;;;;;4.18;2.63;;;0.40;99.90;;;;;;4988403;28;20050;-75
2023/04/04 05:20:24;;;;;;;6.75;2.83;;;0.40;99.90;;;;;;4981927;28;20054;-76
2023/04/04 05:22:50;;;;;;;5.40;2.90;;;0.40;99.90;;;;;;4980815;28;20053;-76
2023/04/04 05:25:17;;;;;;;4.80;2.33;;;0.40;99.90;;;;;;4978949;28;20506;-76
2023/04/04 05:27:47;;;;;;;3.72;2.67;;;0.40;99.90;;;;;;4982378;28;20406;-76
2023/04/04 05:30:15;;;;;;;4.28;2.53;;;0.30;99.90;;;;;;4976230;28;20043;-76
2023/04/04 05:32:44;;;;;;;5.10;2.58;;;0.30;99.90;;;;;;4982261;28;20046;-76
2023/04/04 05:35:11;;;;;;;4.40;2.55;;;0.40;99.90;;;;;;4977657;28;20054;-75
2023/04/04 05:37:39;;;;;;;4.40;2.28;;;0.30;99.90;;;;;;4985981;28;20082;-75
2023/04/04 05:40:07;;;;;;;5.75;2.90;;;0.40;99.90;;;;;;4988152;28;20108;-75
2023/04/04 05:42:34;;;;;;;3.72;2.40;;;0.40;99.90;;;;;;4986975;28;20154;-76
2023/04/04 05:45:00;;;;;;;3.80;2.60;;;0.40;99.90;;;;;;4987902;28;20055;-75
2023/04/04 05:47:27;;;;;;;5.53;2.42;;;0.50;99.90;;;;;;4982556;28;20055;-76
2023/04/04 05:49:54;;;;;;;7.28;2.70;;;0.50;99.90;;;;;;4991539;28;20053;-76
2023/04/04 05:52:20;;;;;;;6.13;2.92;;;0.50;99.90;;;;;;4991425;28;20053;-75
2023/04/04 05:54:47;;;;;;;4.38;2.70;;;0.50;99.90;;;;;;4983618;28;20130;-75
2023/04/04 05:57:14;;;;;;;3.35;2.72;;;0.50;99.90;;;;;;4983675;28;20038;-76
2023/04/04 05:59:41;;;;;;;5.53;2.80;;;0.60;99.90;;;;;;4982144;28;20161;-75
2023/04/04 06:02:07;;;;;;;6.30;2.67;;;0.60;99.90;;;;;;4988220;28;20107;-76
2023/04/04 06:04:34;;;;;;;4.82;2.40;;;0.60;99.90;;;;;;4990342;28;20052;-74
2023/04/04 06:07:01;;;;;;;7.25;2.70;;;0.60;99.90;;;;;;4986368;28;20050;-76
2023/04/04 06:09:28;;;;;;;4.55;2.90;;;0.60;99.90;;;;;;4991272;28;20088;-76
2023/04/04 06:11:55;;;;;;;4.95;2.75;;;0.60;99.90;;;;;;4982103;28;20049;-74
2023/04/04 06:14:22;;;;;;;6.57;2.90;;;0.70;99.90;;;;;;4986121;28;20042;-75
2023/04/04 06:16:48;;;;;;;9.02;3.13;;;0.70;99.90;;;;;;4979595;28;20057;-75
2023/04/04 06:19:15;;;;;;;8.07;2.88;;;0.80;99.90;;;;;;4984427;28;20054;-75
2023/04/04 06:21:42;;;;;;;4.55;2.80;;;0.80;99.90;;;;;;4981559;28;20097;-75
2023/04/04 06:24:09;;;;;;;3.47;2.70;;;0.80;99.90;;;;;;4991885;28;20054;-75
2023/04/04 06:26:36;;;;;;;4.28;2.60;;;0.80;99.90;;;;;;4985372;28;20046;-75
2023/04/04 06:29:03;;;;;;;5.60;2.83;;;0.80;99.90;;;;;;4989042;28;20105;-75
2023/04/04 06:31:30;;;;;;;4.15;2.63;;;0.90;99.90;;;;;;4986163;28;20056;-76
2023/04/04 06:33:57;;;;;;;3.90;2.72;;;0.90;99.90;;;;;;4982508;28;20460;-75
2023/04/04 06:36:24;;;;;;;5.63;2.58;;;1.00;99.90;;;;;;4983306;28;20042;-76
2023/04/04 06:38:51;;;;;;;3.75;2.70;;;1.00;99.90;;;;;;4991473;28;20050;-75
2023/04/04 06:41:18;;;;;;;5.78;2.90;;;1.00;99.90;;;;;;4982294;28;20073;-75
2023/04/04 06:43:48;;;;;;;5.75;2.42;;;1.00;99.90;;;;;;4991150;28;20093;-76
2023/04/04 06:46:14;;;;;;;3.97;2.38;;;1.00;99.90;;;;;;4981561;28;20061;-75
2023/04/04 06:48:42;;;;;;;4.80;3.10;;;1.10;99.90;;;;;;4985640;28;20426;-75
2023/04/04 06:51:09;;;;;;;8.50;2.50;;;1.10;99.90;;;;;;4986258;28;20469;-75
2023/04/04 06:53:36;;;;;;;4.43;2.72;;;1.10;99.90;;;;;;4985375;28;20050;-75
2023/04/04 06:56:04;;;;;;;4.93;2.70;;;1.20;99.90;;;;;;4989349;28;20042;-75
2023/04/04 06:58:31;;;;;;;4.30;2.28;;;1.20;99.90;;;;;;4981141;28;20142;-75
2023/04/04 07:00:58;;;;;;;6.93;2.80;;;1.30;99.90;;;;;;4989231;28;20074;-79
2023/04/04 07:03:26;;;;;;;3.28;2.72;;;1.40;99.90;;;;;;4986471;28;20050;-76
2023/04/04 07:05:52;;;;;;;7.85;2.60;;;1.40;99.90;;;;;;4983860;28;20577;-75
2023/04/04 07:08:19;;;;;;;5.15;2.92;;;1.40;99.90;;;;;;4987708;28;20065;-75
2023/04/04 07:10:46;;;;;;;3.95;2.38;;;1.50;99.90;;;;;;5001232;28;20048;-75
2023/04/04 07:13:13;;;;;;;5.70;2.65;;;1.50;99.90;;;;;;5000151;28;20046;-74
2023/04/04 07:15:40;;;;;;;5.10;2.60;;;1.60;99.90;;;;;;5006202;28;20450;-76
2023/04/04 07:18:07;;;;;;;6.57;2.97;;;1.60;99.90;;;;;;5002686;28;20089;-76
2023/04/04 07:20:34;;;;;;;3.75;2.78;;;1.70;99.90;;;;;;5005855;28;20050;-76
2023/04/04 07:23:01;;;;;;;4.65;2.90;;;1.80;99.90;;;;;;5005934;28;20498;-74
2023/04/04 07:25:27;;;;;;;4.18;2.53;;;1.80;99.90;;;;;;5008427;28;20050;-75
2023/04/04 07:27:54;;;;;;;5.18;3.10;;;1.90;99.90;;;;;;5006946;28;20050;-76
2023/04/04 07:30:38;;;;;;;6.65;2.65;;;2.00;99.90;;;;;;5005094;28;20512;-76
2023/04/04 07:33:05;;;;;;;6.70;3.20;;;2.10;99.90;;;;;;5006184;28;20053;-75
2023/04/04 07:35:31;;;;;;;5.15;3.20;;;2.10;99.90;;;;;;5005903;28;20049;-75
2023/04/04 07:37:58;;;;;;;3.67;2.70;;;2.20;99.90;;;;;;5002283;28;20053;-76
2023/04/04 07:40:26;;;;;;;6.95;3.03;;;2.30;99.90;;;;;;5008686;28;20049;-76
2023/04/04 07:42:53;;;;;;;4.95;3.00;;;2.30;99.90;;;;;;5003100;28;20618;-75
2023/04/04 07:45:21;;;;;;;5.65;2.90;;;2.30;99.90;;;;;;5007138;28;20048;-76
2023/04/04 07:47:48;;;;;;;5.22;2.95;;;2.40;99.90;;;;;;5007931;28;20046;-74
2023/04/04 07:50:15;;;;;;;4.25;2.58;;;2.50;99.90;;;;;;5004362;28;20103;-74
2023/04/04 07:52:48;;;;;;;4.65;2.85;;;2.50;99.90;;;;;;5005085;28;20092;-76
2023/04/04 07:55:15;;;;;;;6.22;2.88;;;2.60;99.90;;;;;;5007096;28;20049;-76
2023/04/04 07:57:43;;;;;;;5.13;2.60;;;2.60;99.90;;;;;;5005797;28;20061;-76
2023/04/04 08:00:10;;;;;;;7.68;2.95;;;2.70;99.90;;;;;;5006829;28;20084;-76
2023/04/04 08:02:38;;;;;;;5.80;2.67;;;2.70;99.90;;;;;;5007948;28;20045;-76
2023/04/04 08:05:05;;;;;;;3.47;2.47;;;2.80;99.90;;;;;;5003470;28;20056;-75
2023/04/04 08:07:32;;;;;;;3.72;2.58;;;2.80;99.90;;;;;;5002724;28;20041;-76
2023/04/04 08:09:59;;;;;;;4.32;2.60;;;2.80;99.90;;;;;;5003658;28;20053;-76
2023/04/04 08:12:26;;;;;;;7.97;2.95;;;2.90;99.90;;;;;;5007820;28;20175;-77
2023/04/04 08:14:52;;;;;;;4.60;2.60;;;2.90;99.90;;;;;;5004100;28;20129;-76
2023/04/04 08:17:19;;;;;;;3.50;2.55;;;3.00;99.90;;;;;;5008226;28;20050;-77
2023/04/04 08:19:46;;;;;;;3.78;2.78;;;3.00;99.90;;;;;;4996808;28;20046;-74
2023/04/04 08:22:13;;;;;;;3.35;2.30;;;3.10;99.90;;;;;;5001614;28;20049;-76
2023/04/04 08:24:40;;;;;;;6.50;2.58;;;3.10;99.90;;;;;;4998666;28;20069;-76
2023/04/04 08:27:06;;;;;;;4.53;2.80;;;3.20;99.90;;;;;;5001376;28;20045;-77
2023/04/04 08:29:33;;;;;;;3.53;2.20;;;3.30;99.90;;;;;;5004867;28;20052;-77
2023/04/04 08:32:00;;;;;;;6.45;2.47;;;3.30;99.90;;;;;;5003443;28;20045;-75
2023/04/04 08:34:27;;;;;;;5.18;2.58;;;3.40;99.90;;;;;;5007031;28;20523;-76
2023/04/04 08:36:54;;;;;;;2.85;2.42;;;3.40;99.90;;;;;;5002520;28;20109;-76
2023/04/04 08:39:21;;;;;;;4.15;2.88;;;3.50;99.90;;;;;;5004038;28;20074;-76
2023/04/04 08:42:04;;;;;;;5.90;2.20;;;3.60;99.90;;;;;;5003749;28;20101;-77
2023/04/04 08:44:33;;;;;;;7.90;2.75;;;3.60;99.90;;;;;;5001479;28;20406;-76
2023/04/04 08:47:08;;;;;;;4.28;2.45;;;3.60;99.90;;;;;;5003378;28;20137;-76
2023/04/04 08:49:37;;;;;;;4.00;2.33;;;3.70;99.90;;;;;;5002198;28;20048;-77
2023/04/04 08:52:06;;;;;;;4.13;2.40;;;3.70;99.90;;;;;;4999970;28;20070;-76
2023/04/04 08:54:34;;;;;;;3.05;2.15;;;3.80;99.90;;;;;;5000632;28;20133;-77
2023/04/04 08:57:01;;;;;;;4.97;2.40;;;3.80;99.90;;;;;;5007003;28;20045;-76
2023/04/04 08:59:28;;;;;;;7.80;2.22;;;3.80;99.90;;;;;;5006596;28;20181;-76
2023/04/04 09:02:23;;;;;;;3.83;2.22;;;3.90;99.90;;;;;;5001319;28;20049;-76
2023/04/04 09:04:52;;;;;;;3.90;2.17;;;3.90;99.90;;;;;;5000134;28;20054;-76
2023/04/04 09:07:32;;;;;;;4.28;2.10;;;4.00;99.90;;;;;;5008254;28;20108;-76
2023/04/04 09:10:02;;;;;;;4.75;2.53;;;4.10;99.90;;;;;;5000760;28;20042;-76
2023/04/04 09:12:35;;;;;;;5.22;2.25;;;4.10;99.90;;;;;;4999267;28;20046;-76
2023/04/04 09:15:02;;;;;;;4.65;2.35;;;4.10;99.90;;;;;;5004715;28;20060;-77
2023/04/04 09:17:29;;;;;;;3.25;2.20;;;4.20;99.90;;;;;;5003338;28;20121;-77
2023/04/04 09:19:59;;;;;;;3.60;2.28;;;4.20;99.90;;;;;;5007850;28;20417;-76
2023/04/04 09:22:26;;;;;;;5.13;2.67;;;4.30;99.90;;;;;;5008705;28;20049;-76
2023/04/04 09:24:52;;;;;;;2.58;2.15;;;4.30;99.90;;;;;;5006524;28;20050;-77
2023/04/04 09:27:20;;;;;;;4.95;2.05;;;4.40;99.90;;;;;;5007311;28;20096;-76
2023/04/04 09:29:46;;;;;;;4.28;2.67;;;4.40;99.90;;;;;;5006429;28;20050;-75
2023/04/04 09:32:17;;;;;;;3.65;2.22;;;4.50;99.90;;;;;;5006167;28;20057;-75
2023/04/04 09:34:44;;;;;;;3.80;2.33;;;4.50;99.90;;;;;;5005214;28;20042;-76
2023/04/04 09:37:15;;;;;;;5.55;2.05;;;4.50;99.90;;;;;;5006692;28;20049;-76
2023/04/04 09:39:43;;;;;;;4.95;2.13;;;4.60;99.90;;;;;;5004209;28;20129;-76
2023/04/04 09:42:11;;;;;;;4.05;2.45;;;4.50;99.90;;;;;;5004870;28;20505;-76
2023/04/04 09:44:38;;;;;;;5.22;2.17;;;4.60;99.90;;;;;;5007661;28;20049;-76
2023/04/04 09:47:27;;;;;;;4.63;2.38;;;4.70;99.90;;;;;;5010185;28;20046;-75
2023/04/04 09:49:59;;;;;;;6.05;2.67;;;4.70;99.90;;;;;;5004384;28;20125;-76
2023/04/04 09:52:26;;;;;;;3.97;2.55;;;4.70;99.90;;;;;;5005771;28;20038;-77
2023/04/04 09:54:57;;;;;;;6.88;2.47;;;4.80;99.90;;;;;;5001818;28;20715;-75
2023/04/04 09:57:50;;;;;;;3.50;2.50;;;4.90;99.90;;;;;;5005779;28;20692;-77
2023/04/04 10:00:19;;;;;;;3.92;2.20;;;4.90;99.90;;;;;;4999363;28;20061;-77
2023/04/04 10:02:47;;;;;;;7.68;2.95;;;5.00;99.90;;;;;;5002893;28;20133;-75
2023/04/04 10:05:15;;;;;;;5.18;2.42;;;5.10;99.90;;;;;;5003713;28;20046;-75
2023/04/04 10:07:43;;;;;;;4.10;2.60;;;5.10;99.90;;;;;;5007710;28;20120;-77
2023/04/04 10:10:09;;;;;;;3.47;2.13;;;5.10;99.90;;;;;;5001133;28;20046;-76
2023/04/04 10:12:37;;;;;;;6.82;2.60;;;5.20;99.90;;;;;;5004894;28;20076;-76
2023/04/04 10:15:04;;;;;;;4.85;2.95;;;5.20;99.90;;;;;;5002442;28;20049;-77
2023/04/04 10:17:38;;;;;;;5.90;2.45;;;5.30;99.90;;;;;;5008890;28;20418;-75
2023/04/04 10:20:07;;;;;;;4.80;2.08;;;5.30;99.90;;;;;;5005283;28;20045;-76
2023/04/04 10:22:36;;;;;;;5.53;2.50;;;5.40;99.90;;;;;;5005973;28;20049;-76
2023/04/04 10:25:08;;;;;;;5.60;2.20;;;5.50;99.90;;;;;;5007233;28;20133;-77
2023/04/04 10:27:37;;;;;;;4.80;2.05;;;5.50;99.90;;;;;;5004678;28;20672;-77
2023/04/04 10:30:04;;;;;;;3.97;2.10;;;5.60;99.90;;;;;;5006751;28;20046;-76
2023/04/04 10:32:44;;;;;;;3.92;2.13;;;5.70;99.90;;;;;;5004251;28;20053;-76
2023/04/04 10:35:11;;;;;;;5.20;2.40;;;5.70;99.90;;;;;;5006617;28;20046;-75
2023/04/04 10:38:08;;;;;;;5.32;2.60;;;5.80;99.90;;;;;;5009789;28;20053;-75
2023/04/04 10:40:37;;;;;;;4.45;1.90;;;5.80;99.90;;;;;;4987667;28;20065;-77
2023/04/04 10:43:05;;;;;;;5.25;2.10;;;5.90;99.90;;;;;;5006509;28;20089;-76
2023/04/04 10:45:33;;;;;;;3.28;2.05;;;6.00;99.90;;;;;;5004708;28;20046;-76
2023/04/04 10:48:02;;;;;;;4.32;2.13;;;6.00;99.90;;;;;;5003540;28;20105;-76
2023/04/04 10:50:33;;;;;;;3.20;2.08;;;6.10;99.90;;;;;;5009346;28;20137;-76
2023/04/04 10:53:02;;;;;;;3.72;2.00;;;6.10;99.90;;;;;;5003801;28;20128;-77
2023/04/04 10:55:31;;;;;;;4.25;2.08;;;6.20;99.90;;;;;;5001475;28;20048;-78
2023/04/04 10:57:58;;;;;;;3.33;1.92;;;6.20;99.90;;;;;;5003015;28;20046;-76
2023/04/04 11:00:25;;;;;;;3.13;2.05;;;6.30;99.90;;;;;;5005477;28;20050;-77
2023/04/04 11:02:51;;;;;;;2.92;2.00;;;6.40;99.90;;;;;;5003421;28;20047;-77
2023/04/04 11:05:48;;;;;;;5.50;2.47;;;6.40;99.90;;;;;;5003628;28;20141;-77
2023/04/04 11:08:18;;;;;;;5.28;1.80;;;6.40;99.90;;;;;;5004421;28;20050;-77
2023/04/04 11:10:47;;;;;;;3.67;1.95;;;6.50;99.90;;;;;;5000745;28;20038;-77
2023/04/04 11:13:21;;;;;;;4.07;2.20;;;6.50;99.90;;;;;;5003117;28;20760;-76
2023/04/04 11:16:03;;;;;;;3.42;1.98;;;6.50;99.90;;;;;;4999374;28;20052;-77
2023/04/04 11:18:42;;;;;;;3.08;1.98;;;6.60;99.90;;;;;;5001904;28;20226;-76
2023/04/04 11:21:26;;;;;;;4.47;1.92;;;6.70;99.90;;;;;;5000482;28;20061;-76
2023/04/04 11:23:53;;;;;;;3.88;2.13;;;6.80;99.90;;;;;;5006009;28;20136;-77
2023/04/04 11:26:28;;;;;;;5.10;2.00;;;6.80;99.90;;;;;;5002372;28;20421;-77
2023/04/04 11:28:57;;;;;;;4.20;1.88;;;6.90;99.90;;;;;;5003107;28;20050;-77
2023/04/04 11:31:26;;;;;;;4.88;2.15;;;6.90;99.90;;;;;;5005289;28;20046;-76
2023/04/04 11:34:12;;;;;;;4.30;2.50;;;6.90;99.90;;;;;;5002137;28;20133;-77
2023/04/04 11:36:40;;;;;;;3.80;2.60;;;6.90;99.90;;;;;;5001699;28;20046;-77
2023/04/04 11:39:14;;;;;;;4.35;2.10;;;6.90;99.90;;;;;;4999055;28;20097;-76
2023/04/04 11:42:02;;;;;;;4.70;1.98;;;7.00;99.90;;;;;;5000740;28;20193;-77
2023/04/04 11:44:31;;;;;;;2.88;1.73;;;7.00;99.90;;;;;;4998048;28;20050;-76
2023/04/04 11:47:08;;;;;;;4.80;2.50;;;7.00;99.90;;;;;;5005278;28;20137;-77
2023/04/04 11:49:42;;;;;;;3.42;2.20;;;7.00;99.90;;;;;;5005750;28;20042;-77
2023/04/04 11:52:11;;;;;;;5.03;2.08;;;7.10;99.90;;;;;;5003518;28;20041;-77
2023/04/04 11:54:39;;;;;;;5.07;2.10;;;7.10;99.90;;;;;;5001359;28;20133;-77
2023/04/04 11:57:10;;;;;;;7.00;2.08;;;7.30;99.90;;;;;;5000016;28;20113;-78
2023/04/04 11:59:45;;;;;;;3.88;2.25;;;7.30;99.90;;;;;;5002722;28;20064;-77
2023/04/04 12:02:15;;;;;;;5.07;1.90;;;7.40;99.90;;;;;;5000068;28;20499;-76
2023/04/04 12:04:44;;;;;;;5.10;2.15;;;7.40;99.90;;;;;;5001559;28;20510;-77
2023/04/04 12:07:12;;;;;;;6.80;2.22;;;7.40;99.90;;;;;;4997591;28;20109;-78
2023/04/04 12:09:41;;;;;;;4.68;2.00;;;7.50;99.90;;;;;;5001098;28;20048;-77
2023/04/04 12:12:13;;;;;;;4.10;2.45;;;7.50;99.90;;;;;;5009369;28;20080;-76
2023/04/04 12:14:40;;;;;;;5.53;2.13;;;7.50;99.90;;;;;;5001526;28;20045;-77
2023/04/04 12:17:07;;;;;;;2.97;2.20;;;7.60;99.90;;;;;;5006162;28;20129;-77
2023/04/04 12:19:38;;;;;;;3.13;2.13;;;7.50;99.90;;;;;;5001185;28;20493;-76
2023/04/04 12:22:06;;;;;;;3.45;2.15;;;7.50;99.90;;;;;;5002387;28;20480;-77
2023/04/04 12:24:34;;;;;;;3.42;1.60;;;7.60;99.90;;;;;;5005304;28;20424;-76
2023/04/04 12:27:02;;;;;;;3.95;1.63;;;7.60;99.90;;;;;;4999400;28;20501;-77
2023/04/04 12:29:35;;;;;;;6.88;2.15;;;7.70;99.90;;;;;;5000767;28;20054;-77
2023/04/04 12:32:03;;;;;;;6.07;2.15;;;7.80;99.90;;;;;;5003451;28;20483;-77
2023/04/04 12:34:32;;;;;;;4.65;1.92;;;7.80;99.90;;;;;;5000252;28;20047;-77
2023/04/04 12:37:00;;;;;;;3.50;2.10;;;7.80;99.90;;;;;;5007620;28;20046;-77
2023/04/04 12:39:28;;;;;;;3.97;1.70;;;7.80;99.90;;;;;;5005368;28;20133;-76
2023/04/04 12:42:02;;;;;;;3.95;1.95;;;7.90;99.90;;;;;;5002293;28;20113;-77
2023/04/04 12:44:36;;;;;;;3.13;1.90;;;8.00;99.90;;;;;;5002487;28;20054;-77
2023/04/04 12:47:05;;;;;;;3.95;2.10;;;8.00;99.90;;;;;;5000278;28;20112;-77
2023/04/04 12:49:40;;;;;;;4.53;2.05;;;8.00;99.90;;;;;;4998499;28;20077;-77
2023/04/04 12:52:15;;;;;;;3.38;1.88;;;8.10;99.90;;;;;;5000677;28;20486;-77
2023/04/04 12:54:42;;;;;;;4.70;2.03;;;8.10;99.90;;;;;;5002070;28;20046;-77
2023/04/04 12:57:16;;;;;;;4.07;2.05;;;8.10;99.90;;;;;;5007625;28;20129;-77
2023/04/04 12:59:48;;;;;;;5.55;2.38;;;8.20;99.90;;;;;;5008854;28;20051;-78
2023/04/04 13:02:20;;;;;;;3.28;1.80;;;8.20;99.90;;;;;;5012005;28;20054;-77
2023/04/04 13:04:51;;;;;;;3.28;1.90;;;8.20;99.90;;;;;;5010692;28;20552;-77